Time;durP1;ratioP1;P1;durP2;ratioP2;P2;SDS_P1;SDS_P2;PMS_P1;PMS_P2;Temp;Humidity;BMP_temperature;BMP_pressure;BME280_temperature;BME280_humidity;BME280_pressure;Samples;Min_cycle;Max_cycle;Signal;HPM_P1;HPM_P2
2024/03/10 00:00:24;;;;;;;37.40;26.52;;;5.70;99.90;;;;;;7369957;19;20027;-63
2024/03/10 00:02:50;;;;;;;36.92;25.05;;;5.70;99.90;;;;;;7371885;19;20022;-63
2024/03/10 00:05:17;;;;;;;31.70;21.35;;;5.80;99.90;;;;;;7368401;19;20966;-63
2024/03/10 00:07:45;;;;;;;33.50;22.88;;;5.70;99.90;;;;;;7370584;19;20035;-63
2024/03/10 00:10:24;;;;;;;32.90;25.15;;;5.80;99.90;;;;;;7360589;19;20102;-63
2024/03/10 00:12:50;;;;;;;39.67;28.10;;;5.80;99.90;;;;;;7367375;19;20482;-66
2024/03/10 00:15:17;;;;;;;39.97;29.85;;;5.80;99.90;;;;;;7366137;19;20022;-64
2024/03/10 00:17:44;;;;;;;37.80;27.85;;;5.80;99.90;;;;;;7367394;19;20377;-64
2024/03/10 00:20:11;;;;;;;35.95;27.00;;;5.80;99.90;;;;;;7355247;19;20018;-64
2024/03/10 00:22:41;;;;;;;34.95;23.08;;;5.80;99.90;;;;;;7368554;19;20101;-64
2024/03/10 00:25:08;;;;;;;36.33;28.17;;;5.80;99.90;;;;;;7367834;19;20046;-64
2024/03/10 00:27:38;;;;;;;36.65;27.90;;;5.80;99.90;;;;;;7370851;19;20029;-66
2024/03/10 00:30:05;;;;;;;33.85;26.15;;;5.80;99.90;;;;;;7370544;19;20018;-64
2024/03/10 00:32:32;;;;;;;33.63;22.48;;;5.80;99.90;;;;;;7372945;19;20026;-64
2024/03/10 00:34:59;;;;;;;33.50;26.30;;;5.80;99.90;;;;;;7367144;19;20632;-64
2024/03/10 00:37:25;;;;;;;35.47;27.67;;;5.80;99.90;;;;;;7368791;19;20562;-64
2024/03/10 00:39:51;;;;;;;37.28;26.25;;;5.90;99.90;;;;;;7371056;19;21114;-63
2024/03/10 00:42:18;;;;;;;36.60;28.75;;;5.80;99.90;;;;;;7365179;19;20022;-63
2024/03/10 00:44:44;;;;;;;38.97;29.38;;;5.80;99.90;;;;;;7365331;19;20383;-63
2024/03/10 00:47:11;;;;;;;35.85;24.60;;;5.80;99.90;;;;;;7372786;19;20022;-62
2024/03/10 00:49:37;;;;;;;39.42;28.50;;;5.90;99.90;;;;;;7364894;19;20060;-63
2024/03/10 00:52:07;;;;;;;41.25;28.73;;;5.80;99.90;;;;;;7371400;19;20487;-64
2024/03/10 00:54:34;;;;;;;36.20;24.63;;;5.80;99.90;;;;;;7368064;19;20014;-64
2024/03/10 00:57:01;;;;;;;40.35;30.10;;;5.80;99.90;;;;;;7369278;19;20022;-64
2024/03/10 00:59:27;;;;;;;36.70;28.13;;;5.80;99.90;;;;;;7371203;19;20026;-65
2024/03/10 01:01:53;;;;;;;34.70;25.45;;;5.80;99.90;;;;;;7368240;19;20116;-64
2024/03/10 01:04:20;;;;;;;34.30;22.98;;;5.80;99.90;;;;;;7369781;19;20018;-65
2024/03/10 01:06:46;;;;;;;31.55;20.63;;;5.90;99.90;;;;;;7365217;19;20042;-64
2024/03/10 01:09:15;;;;;;;34.00;26.02;;;5.80;99.90;;;;;;7372707;19;20010;-64
2024/03/10 01:11:47;;;;;;;29.52;20.70;;;5.80;99.90;;;;;;7366552;19;20022;-62
2024/03/10 01:14:14;;;;;;;36.00;27.63;;;5.80;99.90;;;;;;7366102;19;20015;-63
2024/03/10 01:16:41;;;;;;;38.47;28.13;;;5.80;99.90;;;;;;7367639;19;20483;-63
2024/03/10 01:19:11;;;;;;;40.05;28.30;;;5.80;99.90;;;;;;7366274;19;20793;-63
2024/03/10 01:21:38;;;;;;;29.38;22.25;;;5.80;99.90;;;;;;7367683;19;20028;-63
2024/03/10 01:24:05;;;;;;;38.13;28.27;;;5.80;99.90;;;;;;7372295;19;20029;-63
2024/03/10 01:26:31;;;;;;;39.55;26.65;;;5.70;99.90;;;;;;7370714;19;20163;-63
2024/03/10 01:28:57;;;;;;;36.97;28.25;;;5.70;99.90;;;;;;7371141;19;20018;-64
2024/03/10 01:31:26;;;;;;;38.65;28.27;;;5.80;99.90;;;;;;7362597;19;20018;-64
2024/03/10 01:33:52;;;;;;;36.25;26.55;;;5.70;99.90;;;;;;7368401;19;20644;-64
2024/03/10 01:36:19;;;;;;;38.53;28.70;;;5.70;99.90;;;;;;7369930;19;20026;-64
2024/03/10 01:38:45;;;;;;;34.22;26.45;;;5.70;99.90;;;;;;7366962;19;20027;-64
2024/03/10 01:41:12;;;;;;;37.05;27.63;;;5.70;99.90;;;;;;7359982;19;20478;-64
2024/03/10 01:43:55;;;;;;;27.60;18.55;;;5.70;99.90;;;;;;7368616;19;20024;-64
2024/03/10 01:46:22;;;;;;;37.25;24.15;;;5.70;99.90;;;;;;7367189;19;20025;-63
2024/03/10 01:48:48;;;;;;;37.30;27.48;;;5.70;99.90;;;;;;7366130;19;20022;-62
2024/03/10 01:51:14;;;;;;;36.13;26.58;;;5.70;99.90;;;;;;7363350;19;20037;-62
2024/03/10 01:53:41;;;;;;;36.65;27.10;;;5.70;99.90;;;;;;7365874;19;20040;-62
2024/03/10 01:56:09;;;;;;;37.40;28.38;;;5.70;99.90;;;;;;7362024;19;20457;-62
2024/03/10 01:58:37;;;;;;;31.60;21.05;;;5.80;99.90;;;;;;7363090;19;20019;-64
2024/03/10 02:01:03;;;;;;;38.80;27.48;;;5.80;99.90;;;;;;7361897;19;20042;-63
2024/03/10 02:03:31;;;;;;;30.25;22.98;;;5.80;99.90;;;;;;7370288;19;20043;-63
2024/03/10 02:05:58;;;;;;;34.03;26.17;;;5.80;99.90;;;;;;7365648;19;20029;-64
2024/03/10 02:08:26;;;;;;;35.53;25.17;;;5.80;99.90;;;;;;7372232;19;20205;-64
2024/03/10 02:10:52;;;;;;;38.10;27.88;;;5.80;99.90;;;;;;7367196;19;20026;-62
2024/03/10 02:13:19;;;;;;;38.95;27.27;;;5.80;99.90;;;;;;7371323;19;20018;-63
2024/03/10 02:16:05;;;;;;;37.85;28.60;;;5.80;99.90;;;;;;7370676;19;20019;-64
2024/03/10 02:18:32;;;;;;;38.38;28.15;;;5.80;99.90;;;;;;7377879;19;20023;-64
2024/03/10 02:20:59;;;;;;;32.42;22.90;;;5.80;99.90;;;;;;7372084;19;20026;-61
2024/03/10 02:23:46;;;;;;;34.78;25.30;;;5.70;99.90;;;;;;7376557;19;20033;-63
2024/03/10 02:26:15;;;;;;;37.30;27.50;;;5.80;99.90;;;;;;7362580;19;20025;-61
2024/03/10 02:28:57;;;;;;;36.00;23.45;;;5.80;99.90;;;;;;7375607;19;20014;-63
2024/03/10 02:47:55;;;;;;;29.58;21.27;;;5.70;99.90;;;;;;7373606;19;20562;-64
2024/03/10 02:50:21;;;;;;;34.40;26.20;;;5.70;99.90;;;;;;7370919;19;20090;-64
2024/03/10 02:52:47;;;;;;;32.10;22.95;;;5.60;99.90;;;;;;7376399;19;20014;-62
2024/03/10 02:55:14;;;;;;;33.30;27.08;;;5.60;99.90;;;;;;7368323;19;20959;-64
2024/03/10 02:57:40;;;;;;;36.70;26.63;;;5.60;99.90;;;;;;7374869;19;20026;-63
2024/03/10 03:00:12;;;;;;;35.30;26.60;;;5.60;99.90;;;;;;7367662;19;20018;-68
2024/03/10 03:02:39;;;;;;;35.65;27.15;;;5.50;99.90;;;;;;7374071;19;20022;-65
2024/03/10 03:05:07;;;;;;;31.98;24.42;;;5.50;99.90;;;;;;7364274;19;20014;-65
2024/03/10 03:07:34;;;;;;;31.88;24.52;;;5.50;99.90;;;;;;7369834;19;20021;-63
2024/03/10 03:10:01;;;;;;;34.60;26.30;;;5.50;99.90;;;;;;7376699;19;20022;-62
2024/03/10 03:12:27;;;;;;;35.35;28.08;;;5.50;99.90;;;;;;7372632;19;20014;-62
2024/03/10 03:14:53;;;;;;;37.13;27.75;;;5.40;99.90;;;;;;7374556;19;20034;-63
2024/03/10 03:17:23;;;;;;;33.33;25.42;;;5.40;99.90;;;;;;7375379;19;20082;-63
2024/03/10 03:19:50;;;;;;;37.10;27.95;;;5.40;99.90;;;;;;7376731;19;20114;-62
2024/03/10 03:22:16;;;;;;;36.72;25.98;;;5.40;99.90;;;;;;7375771;19;20032;-64
2024/03/10 03:24:43;;;;;;;36.50;27.65;;;5.40;99.90;;;;;;7370181;19;20022;-61
2024/03/10 03:27:13;;;;;;;36.03;27.50;;;5.40;99.90;;;;;;7372593;19;20082;-62
2024/03/10 03:29:59;;;;;;;35.85;24.85;;;5.40;99.90;;;;;;7373651;19;20090;-62
2024/03/10 03:32:45;;;;;;;37.22;27.58;;;5.40;99.90;;;;;;7371138;19;20042;-62
2024/03/10 03:35:11;;;;;;;34.10;25.55;;;5.30;99.90;;;;;;7376806;19;20358;-64
2024/03/10 03:37:38;;;;;;;29.05;20.98;;;5.30;99.90;;;;;;7369088;19;20030;-62
2024/03/10 03:40:08;;;;;;;38.08;28.27;;;5.30;99.90;;;;;;7372812;19;20842;-63
2024/03/10 03:42:35;;;;;;;33.83;24.15;;;5.30;99.90;;;;;;7372244;19;20102;-61
2024/03/10 03:45:06;;;;;;;36.38;27.42;;;5.30;99.90;;;;;;7373932;19;20022;-62
2024/03/10 03:47:33;;;;;;;34.97;26.40;;;5.30;99.90;;;;;;7371719;19;20011;-62
2024/03/10 03:49:59;;;;;;;36.92;27.42;;;5.30;99.90;;;;;;7376807;19;20086;-62
2024/03/10 03:52:26;;;;;;;37.80;25.17;;;5.30;99.90;;;;;;7371930;19;20493;-62
2024/03/10 03:54:52;;;;;;;36.10;26.40;;;5.30;99.90;;;;;;7369713;19;20089;-62
2024/03/10 03:57:20;;;;;;;39.03;28.02;;;5.20;99.90;;;;;;7369982;19;20035;-64
2024/03/10 03:59:46;;;;;;;34.42;25.08;;;5.30;99.90;;;;;;7368924;19;20022;-62
2024/03/10 04:02:13;;;;;;;34.10;24.50;;;5.20;99.90;;;;;;7373233;19;20503;-62
2024/03/10 04:04:40;;;;;;;34.47;24.65;;;5.20;99.90;;;;;;7377131;19;20486;-62
2024/03/10 04:07:06;;;;;;;39.08;27.35;;;5.20;99.90;;;;;;7374527;19;20057;-62
2024/03/10 04:09:32;;;;;;;35.72;26.83;;;5.10;99.90;;;;;;7373171;19;20089;-64
2024/03/10 04:11:59;;;;;;;37.30;26.42;;;5.10;99.90;;;;;;7377119;19;20014;-65
2024/03/10 04:14:26;;;;;;;33.30;23.98;;;5.10;99.90;;;;;;7371399;19;20045;-62
2024/03/10 04:16:53;;;;;;;37.53;28.25;;;5.00;99.90;;;;;;7371681;19;20047;-62
2024/03/10 04:19:20;;;;;;;35.97;26.50;;;5.00;99.90;;;;;;7374054;19;20055;-62
2024/03/10 04:21:48;;;;;;;35.40;27.13;;;5.00;99.90;;;;;;7372061;19;20048;-64
2024/03/10 04:24:15;;;;;;;36.63;27.55;;;5.00;99.90;;;;;;7375346;19;20503;-62
2024/03/10 04:26:42;;;;;;;39.35;27.55;;;4.90;99.90;;;;;;7367297;19;20041;-62
2024/03/10 04:29:12;;;;;;;37.08;27.52;;;4.90;99.90;;;;;;7370465;19;20078;-62
2024/03/10 04:31:39;;;;;;;36.45;27.27;;;4.90;99.90;;;;;;7368347;19;20027;-64
2024/03/10 04:34:06;;;;;;;41.20;29.20;;;4.90;99.90;;;;;;7373084;19;20018;-64
2024/03/10 04:36:33;;;;;;;38.85;27.65;;;4.80;99.90;;;;;;7371315;19;20026;-63
2024/03/10 04:39:00;;;;;;;38.40;27.25;;;4.80;99.90;;;;;;7375423;19;20129;-63
2024/03/10 04:41:28;;;;;;;39.90;28.42;;;4.80;99.90;;;;;;7370452;19;20705;-63
2024/03/10 04:43:54;;;;;;;37.33;28.90;;;4.70;99.90;;;;;;7375175;19;20018;-63
2024/03/10 04:46:20;;;;;;;42.92;29.65;;;4.70;99.90;;;;;;7373965;19;20056;-64
2024/03/10 04:48:47;;;;;;;37.28;26.92;;;4.60;99.90;;;;;;7375265;19;20082;-63
2024/03/10 04:51:15;;;;;;;38.50;29.25;;;4.60;99.90;;;;;;7375736;19;20106;-65
2024/03/10 04:53:42;;;;;;;39.38;29.42;;;4.60;99.90;;;;;;7371372;19;20114;-61
2024/03/10 04:56:12;;;;;;;42.13;31.45;;;4.60;99.90;;;;;;7374230;19;20059;-62
2024/03/10 04:58:41;;;;;;;40.78;30.58;;;4.50;99.90;;;;;;7367558;19;20018;-62
2024/03/10 05:01:08;;;;;;;41.15;30.35;;;4.50;99.90;;;;;;7371922;19;20022;-62
2024/03/10 05:03:39;;;;;;;40.83;29.70;;;4.50;99.90;;;;;;7371576;19;20057;-62
2024/03/10 05:06:06;;;;;;;38.65;28.52;;;4.50;99.90;;;;;;7376365;19;20057;-65
2024/03/10 05:08:33;;;;;;;40.80;28.90;;;4.40;99.90;;;;;;7372918;19;20511;-64
2024/03/10 05:11:05;;;;;;;41.28;30.70;;;4.40;99.90;;;;;;7375726;19;20058;-64
2024/03/10 05:13:36;;;;;;;42.63;30.75;;;4.40;99.90;;;;;;7370849;19;20019;-64
2024/03/10 05:16:08;;;;;;;41.80;30.95;;;4.40;99.90;;;;;;7371225;19;20086;-62
2024/03/10 05:18:34;;;;;;;45.20;31.60;;;4.40;99.90;;;;;;7364046;19;20029;-63
2024/03/10 05:21:00;;;;;;;42.85;31.38;;;4.40;99.90;;;;;;7373414;19;20022;-62
2024/03/10 05:23:27;;;;;;;43.92;31.23;;;4.40;99.90;;;;;;7372428;19;20719;-63
2024/03/10 05:25:54;;;;;;;41.85;29.52;;;4.40;99.90;;;;;;7371142;19;20773;-62
2024/03/10 05:28:20;;;;;;;40.97;31.48;;;4.40;99.90;;;;;;7371665;19;20033;-64
2024/03/10 05:30:47;;;;;;;47.38;32.42;;;4.40;99.90;;;;;;7373274;19;20010;-64
2024/03/10 05:33:13;;;;;;;41.55;29.58;;;4.30;99.90;;;;;;7367337;19;20509;-63
2024/03/10 05:35:39;;;;;;;43.83;32.42;;;4.30;99.90;;;;;;7368982;19;20018;-63
2024/03/10 05:38:06;;;;;;;39.80;26.20;;;4.30;99.90;;;;;;7368031;19;20022;-62
2024/03/10 05:40:34;;;;;;;43.65;31.85;;;4.30;99.90;;;;;;7369567;19;20034;-62
2024/03/10 05:43:01;;;;;;;44.10;31.73;;;4.20;99.90;;;;;;7369517;19;20033;-63
2024/03/10 05:45:27;;;;;;;40.35;25.13;;;4.20;99.90;;;;;;7369164;19;20022;-63
2024/03/10 05:47:54;;;;;;;44.70;33.03;;;4.20;99.90;;;;;;7370174;19;20029;-63
2024/03/10 05:50:23;;;;;;;46.03;32.15;;;4.20;99.90;;;;;;7367598;19;20029;-63
2024/03/10 05:52:49;;;;;;;46.42;32.60;;;4.20;99.90;;;;;;7371691;19;20019;-65
2024/03/10 05:55:16;;;;;;;47.78;32.58;;;4.20;99.90;;;;;;7369127;19;20019;-64
2024/03/10 05:57:42;;;;;;;41.53;28.60;;;4.10;99.90;;;;;;7365961;19;20014;-64
2024/03/10 06:00:14;;;;;;;45.40;31.02;;;4.10;99.90;;;;;;7368271;19;20102;-64
2024/03/10 06:02:44;;;;;;;43.50;32.97;;;4.10;99.90;;;;;;7369328;19;20029;-63
2024/03/10 06:05:13;;;;;;;48.63;34.45;;;4.10;99.90;;;;;;7364892;19;20463;-64
2024/03/10 06:07:43;;;;;;;45.00;32.88;;;4.10;99.90;;;;;;7367624;19;20083;-64
2024/03/10 06:10:11;;;;;;;37.55;26.73;;;4.00;99.90;;;;;;7366439;19;20015;-64
2024/03/10 06:12:42;;;;;;;48.53;34.15;;;4.00;99.90;;;;;;7364771;19;20078;-65
2024/03/10 06:15:10;;;;;;;51.97;34.95;;;4.10;99.90;;;;;;7362696;19;20019;-64
2024/03/10 06:17:40;;;;;;;51.25;33.55;;;4.00;99.90;;;;;;7365642;19;20023;-63
2024/03/10 06:25:37;;;;;;;50.45;35.53;;;4.00;99.90;;;;;;7364059;19;20518;-64
2024/03/10 06:28:04;;;;;;;37.92;25.15;;;4.10;99.90;;;;;;7363466;19;20018;-63
2024/03/10 06:30:31;;;;;;;48.00;34.03;;;4.10;99.90;;;;;;7369112;19;20098;-62
2024/03/10 06:32:58;;;;;;;49.42;35.33;;;4.10;99.90;;;;;;7368864;19;20521;-64
2024/03/10 06:35:25;;;;;;;52.75;36.53;;;4.10;99.90;;;;;;7363561;19;20019;-64
2024/03/10 06:37:51;;;;;;;50.50;36.28;;;4.10;99.90;;;;;;7368518;19;20026;-64
2024/03/10 06:40:17;;;;;;;45.45;30.10;;;4.10;99.90;;;;;;7366299;19;20021;-62
2024/03/10 06:42:46;;;;;;;50.03;36.53;;;4.20;99.90;;;;;;7369537;19;20019;-63
2024/03/10 06:45:13;;;;;;;52.05;36.50;;;4.20;99.90;;;;;;7368617;19;20021;-65
2024/03/10 06:47:41;;;;;;;53.38;37.28;;;4.20;99.90;;;;;;7368155;19;20029;-64
2024/03/10 06:50:09;;;;;;;43.20;28.15;;;4.20;99.90;;;;;;7368711;19;20018;-63
2024/03/10 06:52:36;;;;;;;50.15;35.22;;;4.20;99.90;;;;;;7364746;19;20604;-63
2024/03/10 06:55:04;;;;;;;48.78;34.35;;;4.30;99.90;;;;;;7374755;19;20452;-63
2024/03/10 06:57:31;;;;;;;49.53;35.67;;;4.30;99.90;;;;;;7372118;19;20069;-63
2024/03/10 06:59:57;;;;;;;47.90;35.42;;;4.30;99.90;;;;;;7374194;19;20102;-64
2024/03/10 07:02:23;;;;;;;53.33;34.53;;;4.40;99.90;;;;;;7376960;19;20138;-63
2024/03/10 07:04:49;;;;;;;52.03;36.17;;;4.40;99.90;;;;;;7372791;19;20022;-63
2024/03/10 07:07:16;;;;;;;51.35;36.25;;;4.50;99.90;;;;;;7373774;19;20022;-63
2024/03/10 07:09:43;;;;;;;52.60;35.20;;;4.50;99.90;;;;;;7367374;19;21511;-62
2024/03/10 07:12:09;;;;;;;51.95;38.05;;;4.50;99.90;;;;;;7374118;19;20557;-65
2024/03/10 07:14:36;;;;;;;52.45;37.25;;;4.60;99.90;;;;;;7373125;19;20022;-64
2024/03/10 07:17:03;;;;;;;52.63;38.90;;;4.70;99.90;;;;;;7371014;19;20486;-64
2024/03/10 07:19:30;;;;;;;48.90;34.53;;;4.70;99.90;;;;;;7367510;19;20049;-64
2024/03/10 07:21:56;;;;;;;53.67;38.78;;;4.80;99.90;;;;;;7369907;19;20367;-63
2024/03/10 07:24:23;;;;;;;51.55;35.42;;;4.80;99.90;;;;;;7370540;19;20022;-64
2024/03/10 07:26:49;;;;;;;53.15;39.28;;;4.80;99.90;;;;;;7369832;19;20014;-65
2024/03/10 07:29:15;;;;;;;50.17;34.10;;;4.80;99.90;;;;;;7371339;19;20022;-65
2024/03/10 07:31:41;;;;;;;52.45;34.33;;;4.90;99.90;;;;;;7373058;19;20057;-66
2024/03/10 07:34:08;;;;;;;52.35;38.67;;;5.00;99.90;;;;;;7370418;19;20014;-66
2024/03/10 07:36:35;;;;;;;49.10;33.38;;;5.00;99.90;;;;;;7376650;19;20537;-65
2024/03/10 07:39:06;;;;;;;52.15;35.50;;;5.00;99.90;;;;;;7369464;19;20029;-65
2024/03/10 07:41:32;;;;;;;51.90;36.10;;;5.10;99.90;;;;;;7374268;19;20029;-64
2024/03/10 07:43:59;;;;;;;51.58;38.20;;;5.10;99.90;;;;;;7370659;19;20015;-64
2024/03/10 07:46:25;;;;;;;62.42;44.65;;;5.20;99.90;;;;;;7371835;19;20025;-64
2024/03/10 07:48:53;;;;;;;56.25;41.55;;;5.30;99.90;;;;;;7372702;19;20022;-65
2024/03/10 07:51:20;;;;;;;58.85;39.88;;;5.30;99.90;;;;;;7371237;19;20030;-65
2024/03/10 07:53:47;;;;;;;55.92;41.80;;;5.40;99.90;;;;;;7372364;19;20018;-65
2024/03/10 07:56:13;;;;;;;54.20;39.15;;;5.40;99.90;;;;;;7372575;19;20086;-65
2024/03/10 07:58:39;;;;;;;57.88;39.28;;;5.40;99.90;;;;;;7365291;19;20096;-65
2024/03/10 08:01:06;;;;;;;47.47;34.35;;;5.50;99.90;;;;;;7372400;19;20593;-65
2024/03/10 08:03:32;;;;;;;50.20;37.33;;;5.60;99.90;;;;;;7373932;19;20029;-65
2024/03/10 08:05:58;;;;;;;54.10;40.30;;;5.60;99.90;;;;;;7371611;19;20027;-66
2024/03/10 08:08:25;;;;;;;54.10;39.65;;;5.70;99.90;;;;;;7372187;19;20437;-65
2024/03/10 08:10:51;;;;;;;50.63;38.30;;;5.80;99.90;;;;;;7366565;19;20025;-62
2024/03/10 08:13:18;;;;;;;49.05;35.50;;;5.90;99.90;;;;;;7369685;19;20876;-64
2024/03/10 08:15:44;;;;;;;51.30;35.05;;;6.10;99.90;;;;;;7369443;19;20022;-64
2024/03/10 08:18:10;;;;;;;48.75;37.20;;;6.20;99.90;;;;;;7371910;19;20894;-64
2024/03/10 08:20:37;;;;;;;54.28;40.25;;;6.30;99.90;;;;;;7369285;19;20030;-64
2024/03/10 08:23:04;;;;;;;56.58;40.83;;;6.40;99.90;;;;;;7372798;19;20119;-64
2024/03/10 08:25:30;;;;;;;52.30;38.80;;;6.50;99.90;;;;;;7366369;19;20895;-64
2024/03/10 08:27:58;;;;;;;51.53;39.88;;;6.50;99.90;;;;;;7367496;19;20356;-64
2024/03/10 08:30:25;;;;;;;53.08;38.65;;;6.50;99.90;;;;;;7367554;19;20025;-64
2024/03/10 08:32:54;;;;;;;47.30;37.00;;;6.60;99.90;;;;;;7370336;19;20018;-64
2024/03/10 08:35:21;;;;;;;51.22;40.25;;;6.80;99.90;;;;;;7362883;19;20554;-64
2024/03/10 08:37:48;;;;;;;46.88;36.20;;;7.10;99.90;;;;;;7369996;19;20021;-65
2024/03/10 08:40:17;;;;;;;44.03;32.00;;;7.10;99.90;;;;;;7370797;19;20478;-64
2024/03/10 08:42:43;;;;;;;48.58;37.58;;;7.30;99.90;;;;;;7369547;19;20038;-64
2024/03/10 08:45:12;;;;;;;54.67;40.28;;;7.30;99.90;;;;;;7363092;19;20092;-64
2024/03/10 08:47:44;;;;;;;42.55;33.28;;;7.40;99.90;;;;;;7372569;19;20033;-65
2024/03/10 08:50:11;;;;;;;51.78;38.35;;;7.40;99.90;;;;;;7362752;19;20662;-65
2024/03/10 08:52:38;;;;;;;45.80;34.78;;;7.50;99.90;;;;;;7371947;19;20593;-68
2024/03/10 08:55:06;;;;;;;50.67;38.75;;;7.50;99.90;;;;;;7367364;19;20022;-65
2024/03/10 08:57:36;;;;;;;47.72;35.17;;;7.60;99.90;;;;;;7366112;19;20031;-65
2024/03/10 09:00:04;;;;;;;45.95;37.75;;;7.90;99.90;;;;;;7368330;19;20483;-63
2024/03/10 09:02:32;;;;;;;42.17;31.63;;;8.00;99.90;;;;;;7372056;19;20031;-64
2024/03/10 09:04:59;;;;;;;45.13;34.10;;;7.90;99.90;;;;;;7366747;19;20356;-63
2024/03/10 09:07:26;;;;;;;46.65;36.47;;;8.00;99.90;;;;;;7367171;19;20154;-63
2024/03/10 09:09:52;;;;;;;50.05;37.60;;;7.80;99.90;;;;;;7364716;19;20126;-64
2024/03/10 09:12:18;;;;;;;48.50;37.13;;;7.80;99.90;;;;;;7366167;19;20022;-64
2024/03/10 09:14:45;;;;;;;60.05;45.80;;;7.90;99.90;;;;;;7361883;19;20025;-72
2024/03/10 09:17:11;;;;;;;87.20;69.30;;;8.10;99.90;;;;;;7363511;19;20565;-72
2024/03/10 09:19:40;;;;;;;42.80;35.03;;;8.60;99.90;;;;;;7365584;19;20479;-62
2024/03/10 09:22:08;;;;;;;60.30;47.05;;;8.90;99.90;;;;;;7370354;19;20118;-66
2024/03/10 09:24:34;;;;;;;41.65;34.58;;;9.00;99.90;;;;;;7369561;19;20484;-62
2024/03/10 09:27:01;;;;;;;44.67;34.50;;;9.30;99.90;;;;;;7372171;19;20022;-62
2024/03/10 09:29:27;;;;;;;41.20;34.28;;;9.70;99.90;;;;;;7368002;19;20022;-61
2024/03/10 09:31:55;;;;;;;45.38;36.53;;;10.30;99.90;;;;;;7368578;19;20035;-62
2024/03/10 09:34:25;;;;;;;44.03;37.17;;;10.70;99.90;;;;;;7363769;19;20014;-62
2024/03/10 09:36:54;;;;;;;37.25;32.38;;;11.20;99.90;;;;;;7370284;19;20022;-61
2024/03/10 09:39:23;;;;;;;43.47;36.33;;;11.80;99.90;;;;;;7363489;19;20019;-61
2024/03/10 09:41:50;;;;;;;40.97;33.33;;;12.10;99.90;;;;;;7369230;19;20086;-63
2024/03/10 09:44:22;;;;;;;39.30;32.80;;;12.30;99.90;;;;;;7369253;19;20098;-62
2024/03/10 09:46:49;;;;;;;38.72;33.70;;;12.70;99.90;;;;;;7364178;19;20030;-62
2024/03/10 09:49:22;;;;;;;42.47;36.67;;;13.00;99.90;;;;;;7366453;19;20022;-61
2024/03/10 09:51:49;;;;;;;42.45;36.63;;;12.90;99.90;;;;;;7366281;19;20504;-61
2024/03/10 09:54:19;;;;;;;38.33;34.33;;;13.10;99.90;;;;;;7367800;19;20098;-61
2024/03/10 09:56:47;;;;;;;41.35;34.58;;;13.20;99.90;;;;;;7371735;19;20039;-61
2024/03/10 09:59:35;;;;;;;39.33;35.03;;;13.20;99.90;;;;;;7365067;19;20021;-62
2024/03/10 10:02:05;;;;;;;41.42;36.92;;;13.20;99.90;;;;;;7367715;19;20018;-62
2024/03/10 10:04:46;;;;;;;40.30;35.35;;;13.60;99.90;;;;;;7360244;19;20011;-62
2024/03/10 10:07:12;;;;;;;38.42;34.25;;;13.80;99.90;;;;;;7370934;19;20018;-62
2024/03/10 10:09:39;;;;;;;39.35;34.67;;;13.50;99.90;;;;;;7362873;19;20018;-62
2024/03/10 10:12:06;;;;;;;39.83;35.50;;;13.20;99.90;;;;;;7366628;19;20112;-62
2024/03/10 10:14:33;;;;;;;37.15;32.88;;;12.90;99.90;;;;;;7368612;19;20046;-61
2024/03/10 10:17:00;;;;;;;42.75;37.78;;;12.70;99.90;;;;;;7361869;19;20522;-61
2024/03/10 10:19:29;;;;;;;39.08;33.70;;;12.80;99.90;;;;;;7366782;19;20027;-61
2024/03/10 10:21:56;;;;;;;36.53;32.63;;;12.80;99.90;;;;;;7368327;19;20117;-62
2024/03/10 10:24:22;;;;;;;38.60;34.58;;;13.40;99.90;;;;;;7369210;19;20051;-62
2024/03/10 10:26:59;;;;;;;36.60;32.55;;;14.10;99.90;;;;;;7370446;19;20022;-62
2024/03/10 10:29:25;;;;;;;41.70;34.90;;;14.50;99.90;;;;;;7370054;19;20015;-62
2024/03/10 10:31:59;;;;;;;37.58;33.58;;;14.40;99.90;;;;;;7373322;19;20426;-64
2024/03/10 10:34:26;;;;;;;40.05;35.75;;;14.80;99.90;;;;;;7378358;19;20027;-62
2024/03/10 10:36:55;;;;;;;39.25;35.15;;;15.30;99.90;;;;;;7373420;19;21253;-62
2024/03/10 10:39:29;;;;;;;36.70;32.85;;;15.40;99.90;;;;;;7377022;19;20041;-61
2024/03/10 10:41:57;;;;;;;36.50;32.67;;;15.40;99.00;;;;;;7373813;19;20014;-61
2024/03/10 10:44:24;;;;;;;37.90;33.78;;;15.40;99.60;;;;;;7377425;19;20015;-61
2024/03/10 10:46:51;;;;;;;37.88;33.88;;;15.20;99.40;;;;;;7375400;19;20030;-62
2024/03/10 10:49:21;;;;;;;33.90;30.35;;;14.90;99.20;;;;;;7369662;19;21479;-61
2024/03/10 10:51:52;;;;;;;36.63;32.80;;;14.60;99.00;;;;;;7366834;19;20093;-61
2024/03/10 10:54:19;;;;;;;36.50;32.70;;;14.60;99.30;;;;;;7369815;19;20029;-61
2024/03/10 10:56:57;;;;;;;33.03;29.50;;;14.50;99.90;;;;;;7376656;19;20018;-61
2024/03/10 10:59:27;;;;;;;37.45;33.58;;;14.70;99.60;;;;;;7368646;19;20018;-62
2024/03/10 11:02:06;;;;;;;33.60;28.25;;;14.70;99.70;;;;;;7372510;19;20026;-61
2024/03/10 11:04:36;;;;;;;39.25;35.03;;;14.70;98.30;;;;;;7370003;19;20109;-61
2024/03/10 11:07:05;;;;;;;36.83;32.92;;;14.40;99.70;;;;;;7375607;19;20015;-61
2024/03/10 11:09:31;;;;;;;33.45;29.75;;;14.70;99.90;;;;;;7367170;19;20013;-60
2024/03/10 11:11:58;;;;;;;35.53;31.83;;;14.30;99.20;;;;;;7369553;19;20033;-61
2024/03/10 11:14:26;;;;;;;37.22;33.33;;;14.00;99.90;;;;;;7366826;19;20090;-61
2024/03/10 11:17:12;;;;;;;33.28;29.45;;;14.00;99.90;;;;;;7371698;19;20129;-61
2024/03/10 11:19:40;;;;;;;31.90;26.90;;;14.20;99.90;;;;;;7373948;19;20029;-62
2024/03/10 11:22:10;;;;;;;37.03;33.05;;;15.00;99.40;;;;;;7370287;19;20015;-61
2024/03/10 11:24:37;;;;;;;34.13;30.52;;;15.40;98.50;;;;;;7366950;19;20094;-61
2024/03/10 11:27:20;;;;;;;39.42;35.28;;;15.80;97.40;;;;;;7368260;19;20022;-61
2024/03/10 11:29:48;;;;;;;36.20;32.40;;;15.80;96.40;;;;;;7371546;19;20353;-61
2024/03/10 11:32:34;;;;;;;41.40;37.08;;;16.10;96.60;;;;;;7369505;19;20041;-61
2024/03/10 11:35:06;;;;;;;37.67;33.95;;;16.30;96.10;;;;;;7372339;19;20018;-62
2024/03/10 11:37:35;;;;;;;33.50;30.10;;;15.90;97.00;;;;;;7367701;19;20093;-62
2024/03/10 11:40:04;;;;;;;41.05;36.50;;;15.50;96.70;;;;;;7368032;19;20023;-62
2024/03/10 11:42:33;;;;;;;34.80;31.20;;;15.30;97.30;;;;;;7362764;19;20026;-61
2024/03/10 11:45:03;;;;;;;39.40;35.33;;;15.20;97.10;;;;;;7371276;19;20077;-66
2024/03/10 11:47:32;;;;;;;34.08;30.67;;;15.10;97.70;;;;;;7369552;19;20022;-62
2024/03/10 11:50:05;;;;;;;36.75;33.03;;;15.30;97.20;;;;;;7372344;19;20031;-62
2024/03/10 11:52:31;;;;;;;31.65;28.33;;;15.30;97.20;;;;;;7371873;19;20023;-62
2024/03/10 11:54:58;;;;;;;35.88;31.95;;;15.50;97.00;;;;;;7369529;19;20022;-62
2024/03/10 11:57:25;;;;;;;38.30;34.17;;;15.80;97.00;;;;;;7367873;19;20471;-61
2024/03/10 11:59:54;;;;;;;33.50;30.10;;;16.10;96.50;;;;;;7366844;19;20692;-62
2024/03/10 12:02:22;;;;;;;31.10;27.63;;;15.80;95.50;;;;;;7373332;19;20022;-63
2024/03/10 12:04:49;;;;;;;36.92;33.22;;;16.70;95.60;;;;;;7365540;19;20023;-62
2024/03/10 12:07:16;;;;;;;34.40;30.90;;;17.50;94.60;;;;;;7368073;19;20018;-62
2024/03/10 12:09:42;;;;;;;34.92;31.40;;;18.10;94.00;;;;;;7370240;19;20057;-63
2024/03/10 12:12:13;;;;;;;56.28;50.47;;;18.00;92.70;;;;;;7373501;19;20027;-64
2024/03/10 12:14:43;;;;;;;33.20;29.88;;;18.20;92.80;;;;;;7376512;19;20019;-65
2024/03/10 12:17:13;;;;;;;41.60;37.40;;;17.90;92.10;;;;;;7377816;19;20023;-65
2024/03/10 12:19:42;;;;;;;30.17;27.08;;;17.70;92.00;;;;;;7372778;19;20086;-64
2024/03/10 12:22:13;;;;;;;48.25;43.22;;;17.50;92.60;;;;;;7376090;19;20022;-65
2024/03/10 12:24:43;;;;;;;46.00;41.35;;;17.00;92.50;;;;;;7374659;19;20031;-64
2024/03/10 12:27:09;;;;;;;40.15;36.03;;;16.70;93.50;;;;;;7378227;19;20022;-63
2024/03/10 12:29:48;;;;;;;34.10;30.60;;;16.90;93.40;;;;;;7372847;19;20025;-63
2024/03/10 12:32:15;;;;;;;32.47;29.17;;;16.70;93.00;;;;;;7373267;19;20018;-64
2024/03/10 12:34:41;;;;;;;35.28;31.75;;;16.30;93.30;;;;;;7368739;19;20037;-64
2024/03/10 12:37:08;;;;;;;32.42;28.90;;;16.40;94.30;;;;;;7369936;19;20030;-64
2024/03/10 12:39:36;;;;;;;32.50;29.20;;;16.80;94.30;;;;;;7368997;19;20021;-63
2024/03/10 12:42:04;;;;;;;29.75;26.77;;;17.40;93.30;;;;;;7371823;19;20026;-64
2024/03/10 12:44:31;;;;;;;27.85;25.02;;;17.40;92.30;;;;;;7367935;19;20105;-65
2024/03/10 12:46:57;;;;;;;31.98;28.73;;;18.00;92.00;;;;;;7371569;19;20034;-63
2024/03/10 12:49:24;;;;;;;30.63;27.45;;;18.00;91.80;;;;;;7367093;19;20378;-64
2024/03/10 12:51:50;;;;;;;33.22;29.90;;;17.60;91.40;;;;;;7369107;19;20014;-63
2024/03/10 12:54:16;;;;;;;32.78;29.42;;;17.50;91.40;;;;;;7368563;19;20019;-63
2024/03/10 12:56:43;;;;;;;31.90;28.80;;;18.00;91.70;;;;;;7371391;19;20019;-64
2024/03/10 12:59:10;;;;;;;30.85;27.75;;;18.10;91.60;;;;;;7370416;19;20015;-64